sensor_id;sensor_type;location;lat;lon;timestamp;temperature;humidity
25616;DHT22;13482;48.234;13.006;2022-07-29T00:01:39;24.70;62.30
25616;DHT22;13482;48.234;13.006;2022-07-29T00:04:07;24.70;62.40
25616;DHT22;13482;48.234;13.006;2022-07-29T00:06:34;24.70;62.50
25616;DHT22;13482;48.234;13.006;2022-07-29T00:09:02;24.60;62.60
25616;DHT22;13482;48.234;13.006;2022-07-29T00:11:29;24.60;62.80
25616;DHT22;13482;48.234;13.006;2022-07-29T00:13:57;24.60;62.90
25616;DHT22;13482;48.234;13.006;2022-07-29T00:16:24;24.60;63.00
25616;DHT22;13482;48.234;13.006;2022-07-29T00:18:51;24.60;63.00
25616;DHT22;13482;48.234;13.006;2022-07-29T00:21:18;24.60;63.00
25616;DHT22;13482;48.234;13.006;2022-07-29T00:23:46;24.60;63.10
25616;DHT22;13482;48.234;13.006;2022-07-29T00:26:13;24.60;63.20
25616;DHT22;13482;48.234;13.006;2022-07-29T00:28:40;24.60;63.20
25616;DHT22;13482;48.234;13.006;2022-07-29T00:31:07;24.60;63.20
25616;DHT22;13482;48.234;13.006;2022-07-29T00:33:35;24.60;63.20
25616;DHT22;13482;48.234;13.006;2022-07-29T00:36:02;24.70;63.20
25616;DHT22;13482;48.234;13.006;2022-07-29T00:38:30;24.70;63.20
25616;DHT22;13482;48.234;13.006;2022-07-29T00:40:57;24.70;63.20
25616;DHT22;13482;48.234;13.006;2022-07-29T00:43:24;24.70;63.10
25616;DHT22;13482;48.234;13.006;2022-07-29T00:45:52;24.70;63.10
25616;DHT22;13482;48.234;13.006;2022-07-29T00:48:19;24.70;63.10
25616;DHT22;13482;48.234;13.006;2022-07-29T00:50:46;24.70;63.10
25616;DHT22;13482;48.234;13.006;2022-07-29T00:53:13;24.70;63.00
25616;DHT22;13482;48.234;13.006;2022-07-29T00:55:41;24.80;63.00
25616;DHT22;13482;48.234;13.006;2022-07-29T00:58:08;24.80;63.00
25616;DHT22;13482;48.234;13.006;2022-07-29T01:00:35;24.80;63.00
25616;DHT22;13482;48.234;13.006;2022-07-29T01:03:03;24.80;63.10
25616;DHT22;13482;48.234;13.006;2022-07-29T01:05:31;24.80;63.10
25616;DHT22;13482;48.234;13.006;2022-07-29T01:08:17;24.80;63.10
25616;DHT22;13482;48.234;13.006;2022-07-29T01:10:45;24.80;63.10
25616;DHT22;13482;48.234;13.006;2022-07-29T01:13:14;24.80;63.20
25616;DHT22;13482;48.234;13.006;2022-07-29T01:15:46;24.80;63.30
25616;DHT22;13482;48.234;13.006;2022-07-29T01:18:22;24.80;63.30
25616;DHT22;13482;48.234;13.006;2022-07-29T01:30:16;24.60;63.80
25616;DHT22;13482;48.234;13.006;2022-07-29T01:32:47;24.60;63.20
25616;DHT22;13482;48.234;13.006;2022-07-29T01:35:21;24.60;62.80
25616;DHT22;13482;48.234;13.006;2022-07-29T01:43:55;24.50;63.30
25616;DHT22;13482;48.234;13.006;2022-07-29T01:46:35;24.40;63.30
25616;DHT22;13482;48.234;13.006;2022-07-29T01:49:13;24.40;63.10
25616;DHT22;13482;48.234;13.006;2022-07-29T01:51:51;24.40;63.10
25616;DHT22;13482;48.234;13.006;2022-07-29T01:54:38;24.40;63.10
25616;DHT22;13482;48.234;13.006;2022-07-29T01:57:14;24.40;63.00
25616;DHT22;13482;48.234;13.006;2022-07-29T01:59:45;24.30;62.70
25616;DHT22;13482;48.234;13.006;2022-07-29T02:02:15;24.30;62.70
25616;DHT22;13482;48.234;13.006;2022-07-29T02:04:44;24.30;62.70
25616;DHT22;13482;48.234;13.006;2022-07-29T02:07:19;24.30;62.60
25616;DHT22;13482;48.234;13.006;2022-07-29T02:09:49;24.30;62.60
25616;DHT22;13482;48.234;13.006;2022-07-29T02:12:18;24.30;62.50
25616;DHT22;13482;48.234;13.006;2022-07-29T02:14:49;24.30;62.40
25616;DHT22;13482;48.234;13.006;2022-07-29T02:17:23;24.30;62.50
25616;DHT22;13482;48.234;13.006;2022-07-29T02:19:56;24.30;62.50
25616;DHT22;13482;48.234;13.006;2022-07-29T02:22:27;24.20;62.40
25616;DHT22;13482;48.234;13.006;2022-07-29T02:24:58;24.20;62.30
25616;DHT22;13482;48.234;13.006;2022-07-29T02:27:28;24.20;62.20
25616;DHT22;13482;48.234;13.006;2022-07-29T02:29:57;24.20;62.30
25616;DHT22;13482;48.234;13.006;2022-07-29T02:32:26;24.20;62.30
25616;DHT22;13482;48.234;13.006;2022-07-29T02:34:55;24.20;62.20
25616;DHT22;13482;48.234;13.006;2022-07-29T02:37:24;24.20;62.10
25616;DHT22;13482;48.234;13.006;2022-07-29T02:39:53;24.10;62.20
25616;DHT22;13482;48.234;13.006;2022-07-29T02:42:23;24.10;62.20
25616;DHT22;13482;48.234;13.006;2022-07-29T02:44:50;24.10;62.30
25616;DHT22;13482;48.234;13.006;2022-07-29T02:47:34;24.10;62.30
25616;DHT22;13482;48.234;13.006;2022-07-29T02:50:50;24.10;62.70
25616;DHT22;13482;48.234;13.006;2022-07-29T02:53:22;24.00;62.50
25616;DHT22;13482;48.234;13.006;2022-07-29T02:55:58;24.00;62.20
25616;DHT22;13482;48.234;13.006;2022-07-29T02:58:44;24.00;62.40
25616;DHT22;13482;48.234;13.006;2022-07-29T03:01:21;23.90;62.70
25616;DHT22;13482;48.234;13.006;2022-07-29T03:03:52;23.90;62.80
25616;DHT22;13482;48.234;13.006;2022-07-29T03:06:22;23.80;62.50
25616;DHT22;13482;48.234;13.006;2022-07-29T03:09:04;23.80;62.60
25616;DHT22;13482;48.234;13.006;2022-07-29T03:11:39;23.80;62.60
25616;DHT22;13482;48.234;13.006;2022-07-29T03:14:19;23.80;62.50
25616;DHT22;13482;48.234;13.006;2022-07-29T03:16:48;23.80;62.70
25616;DHT22;13482;48.234;13.006;2022-07-29T03:19:17;23.70;62.80
25616;DHT22;13482;48.234;13.006;2022-07-29T03:21:45;23.70;62.90
25616;DHT22;13482;48.234;13.006;2022-07-29T03:24:33;23.70;62.90
25616;DHT22;13482;48.234;13.006;2022-07-29T03:27:01;23.70;63.70
25616;DHT22;13482;48.234;13.006;2022-07-29T03:29:29;23.70;63.00
25616;DHT22;13482;48.234;13.006;2022-07-29T03:32:01;23.70;63.20
25616;DHT22;13482;48.234;13.006;2022-07-29T03:34:33;23.70;63.20
25616;DHT22;13482;48.234;13.006;2022-07-29T03:37:00;23.60;63.40
25616;DHT22;13482;48.234;13.006;2022-07-29T03:39:31;23.60;63.50
25616;DHT22;13482;48.234;13.006;2022-07-29T03:42:01;23.60;63.80
25616;DHT22;13482;48.234;13.006;2022-07-29T03:44:29;23.50;63.80
25616;DHT22;13482;48.234;13.006;2022-07-29T03:46:59;23.50;63.80
25616;DHT22;13482;48.234;13.006;2022-07-29T03:49:29;23.40;64.00
25616;DHT22;13482;48.234;13.006;2022-07-29T03:51:58;23.40;64.00
25616;DHT22;13482;48.234;13.006;2022-07-29T03:54:25;23.30;64.00
25616;DHT22;13482;48.234;13.006;2022-07-29T03:56:53;23.30;64.20
25616;DHT22;13482;48.234;13.006;2022-07-29T03:59:21;23.30;64.20
25616;DHT22;13482;48.234;13.006;2022-07-29T04:01:50;23.30;64.20
25616;DHT22;13482;48.234;13.006;2022-07-29T04:04:17;23.30;64.20
25616;DHT22;13482;48.234;13.006;2022-07-29T04:06:46;23.20;64.20
25616;DHT22;13482;48.234;13.006;2022-07-29T04:09:14;23.30;64.40
25616;DHT22;13482;48.234;13.006;2022-07-29T04:11:42;23.20;64.50
25616;DHT22;13482;48.234;13.006;2022-07-29T04:14:28;23.20;64.40
25616;DHT22;13482;48.234;13.006;2022-07-29T04:16:56;23.20;64.30
25616;DHT22;13482;48.234;13.006;2022-07-29T04:19:23;23.20;64.40
25616;DHT22;13482;48.234;13.006;2022-07-29T04:21:51;23.20;64.40
25616;DHT22;13482;48.234;13.006;2022-07-29T04:24:18;23.20;64.50
25616;DHT22;13482;48.234;13.006;2022-07-29T04:26:47;23.20;64.50
25616;DHT22;13482;48.234;13.006;2022-07-29T04:29:14;23.30;64.60
25616;DHT22;13482;48.234;13.006;2022-07-29T04:31:42;23.30;64.60
25616;DHT22;13482;48.234;13.006;2022-07-29T04:34:10;23.30;64.70
25616;DHT22;13482;48.234;13.006;2022-07-29T04:36:38;23.30;64.70
25616;DHT22;13482;48.234;13.006;2022-07-29T04:39:06;23.30;64.60
25616;DHT22;13482;48.234;13.006;2022-07-29T04:41:33;23.30;64.70
25616;DHT22;13482;48.234;13.006;2022-07-29T04:44:00;23.40;64.70
25616;DHT22;13482;48.234;13.006;2022-07-29T04:46:34;23.40;64.90
25616;DHT22;13482;48.234;13.006;2022-07-29T04:49:03;23.40;65.10
25616;DHT22;13482;48.234;13.006;2022-07-29T04:51:30;23.40;65.40
25616;DHT22;13482;48.234;13.006;2022-07-29T04:53:58;23.40;65.60
25616;DHT22;13482;48.234;13.006;2022-07-29T04:56:30;23.40;65.70
25616;DHT22;13482;48.234;13.006;2022-07-29T04:58:57;23.40;65.70
25616;DHT22;13482;48.234;13.006;2022-07-29T05:01:24;23.40;65.80
25616;DHT22;13482;48.234;13.006;2022-07-29T05:03:52;23.40;66.00
25616;DHT22;13482;48.234;13.006;2022-07-29T05:06:26;23.40;66.10
25616;DHT22;13482;48.234;13.006;2022-07-29T05:08:53;23.50;66.20
25616;DHT22;13482;48.234;13.006;2022-07-29T05:11:20;23.50;66.30
25616;DHT22;13482;48.234;13.006;2022-07-29T05:13:52;23.50;66.30
25616;DHT22;13482;48.234;13.006;2022-07-29T05:16:20;23.50;66.30
25616;DHT22;13482;48.234;13.006;2022-07-29T05:18:48;23.60;66.20
25616;DHT22;13482;48.234;13.006;2022-07-29T05:21:15;23.60;66.20
25616;DHT22;13482;48.234;13.006;2022-07-29T05:23:42;23.60;66.10
25616;DHT22;13482;48.234;13.006;2022-07-29T05:26:09;23.60;66.10
25616;DHT22;13482;48.234;13.006;2022-07-29T05:28:37;23.60;66.10
25616;DHT22;13482;48.234;13.006;2022-07-29T05:31:04;23.60;66.10
25616;DHT22;13482;48.234;13.006;2022-07-29T05:33:31;23.70;66.00
25616;DHT22;13482;48.234;13.006;2022-07-29T05:36:04;23.70;66.00
25616;DHT22;13482;48.234;13.006;2022-07-29T05:38:35;23.80;65.90
25616;DHT22;13482;48.234;13.006;2022-07-29T05:41:04;23.80;65.80
25616;DHT22;13482;48.234;13.006;2022-07-29T05:43:32;23.80;66.00
25616;DHT22;13482;48.234;13.006;2022-07-29T05:45:59;23.90;66.00
25616;DHT22;13482;48.234;13.006;2022-07-29T05:48:27;23.90;66.00
25616;DHT22;13482;48.234;13.006;2022-07-29T05:50:54;24.00;66.10
25616;DHT22;13482;48.234;13.006;2022-07-29T05:53:22;24.00;66.20
25616;DHT22;13482;48.234;13.006;2022-07-29T05:55:49;24.10;66.30
25616;DHT22;13482;48.234;13.006;2022-07-29T05:58:17;24.20;66.00
25616;DHT22;13482;48.234;13.006;2022-07-29T06:00:45;24.20;65.90
25616;DHT22;13482;48.234;13.006;2022-07-29T06:03:12;24.30;65.80
25616;DHT22;13482;48.234;13.006;2022-07-29T06:05:39;24.30;65.90
25616;DHT22;13482;48.234;13.006;2022-07-29T06:08:07;24.30;65.80
25616;DHT22;13482;48.234;13.006;2022-07-29T06:10:37;24.40;65.70
25616;DHT22;13482;48.234;13.006;2022-07-29T06:13:05;24.40;66.00
25616;DHT22;13482;48.234;13.006;2022-07-29T06:15:32;24.50;65.80
25616;DHT22;13482;48.234;13.006;2022-07-29T06:18:00;24.50;65.80
25616;DHT22;13482;48.234;13.006;2022-07-29T06:20:31;24.60;65.70
25616;DHT22;13482;48.234;13.006;2022-07-29T06:22:59;24.60;65.70
25616;DHT22;13482;48.234;13.006;2022-07-29T06:25:27;24.70;65.60
25616;DHT22;13482;48.234;13.006;2022-07-29T06:27:58;24.70;65.50
25616;DHT22;13482;48.234;13.006;2022-07-29T06:30:26;24.80;65.50
25616;DHT22;13482;48.234;13.006;2022-07-29T06:32:55;24.80;65.50
25616;DHT22;13482;48.234;13.006;2022-07-29T06:35:22;24.90;65.60
25616;DHT22;13482;48.234;13.006;2022-07-29T06:38:07;24.90;65.80
25616;DHT22;13482;48.234;13.006;2022-07-29T06:40:54;25.00;65.80
25616;DHT22;13482;48.234;13.006;2022-07-29T06:43:34;25.10;65.90
25616;DHT22;13482;48.234;13.006;2022-07-29T06:46:19;25.20;65.90
25616;DHT22;13482;48.234;13.006;2022-07-29T06:48:47;25.30;66.00
25616;DHT22;13482;48.234;13.006;2022-07-29T06:51:15;25.40;65.90
25616;DHT22;13482;48.234;13.006;2022-07-29T06:53:50;25.50;66.00
25616;DHT22;13482;48.234;13.006;2022-07-29T06:56:33;25.70;66.20
25616;DHT22;13482;48.234;13.006;2022-07-29T06:59:06;25.90;66.20
25616;DHT22;13482;48.234;13.006;2022-07-29T07:01:39;26.00;65.90
25616;DHT22;13482;48.234;13.006;2022-07-29T07:04:08;26.20;65.60
25616;DHT22;13482;48.234;13.006;2022-07-29T07:06:36;26.30;65.50
25616;DHT22;13482;48.234;13.006;2022-07-29T07:09:04;26.40;65.40
25616;DHT22;13482;48.234;13.006;2022-07-29T07:11:31;26.50;65.20
25616;DHT22;13482;48.234;13.006;2022-07-29T07:13:59;26.60;65.10
25616;DHT22;13482;48.234;13.006;2022-07-29T07:16:30;26.70;64.80
25616;DHT22;13482;48.234;13.006;2022-07-29T07:18:58;26.80;64.60
25616;DHT22;13482;48.234;13.006;2022-07-29T07:21:26;26.90;64.40
25616;DHT22;13482;48.234;13.006;2022-07-29T07:23:56;27.00;64.40
25616;DHT22;13482;48.234;13.006;2022-07-29T07:26:23;27.10;64.40
25616;DHT22;13482;48.234;13.006;2022-07-29T07:28:51;27.10;64.40
25616;DHT22;13482;48.234;13.006;2022-07-29T07:31:19;27.20;64.40
25616;DHT22;13482;48.234;13.006;2022-07-29T07:33:46;27.30;64.60
25616;DHT22;13482;48.234;13.006;2022-07-29T07:36:13;27.50;64.50
25616;DHT22;13482;48.234;13.006;2022-07-29T07:38:41;27.70;64.20
25616;DHT22;13482;48.234;13.006;2022-07-29T07:41:08;27.80;63.80
25616;DHT22;13482;48.234;13.006;2022-07-29T07:43:35;28.00;63.40
25616;DHT22;13482;48.234;13.006;2022-07-29T07:46:02;28.10;63.20
25616;DHT22;13482;48.234;13.006;2022-07-29T07:48:30;28.20;63.30
25616;DHT22;13482;48.234;13.006;2022-07-29T07:50:57;28.30;63.10
25616;DHT22;13482;48.234;13.006;2022-07-29T07:53:24;28.40;62.30
25616;DHT22;13482;48.234;13.006;2022-07-29T07:55:52;28.50;61.70
25616;DHT22;13482;48.234;13.006;2022-07-29T07:58:37;28.60;61.90
25616;DHT22;13482;48.234;13.006;2022-07-29T08:01:04;28.70;62.00
25616;DHT22;13482;48.234;13.006;2022-07-29T08:03:32;28.80;62.00
25616;DHT22;13482;48.234;13.006;2022-07-29T08:05:59;28.90;61.70
25616;DHT22;13482;48.234;13.006;2022-07-29T08:08:26;29.00;61.70
25616;DHT22;13482;48.234;13.006;2022-07-29T08:10:54;29.20;61.40
25616;DHT22;13482;48.234;13.006;2022-07-29T08:13:28;29.30;61.20
25616;DHT22;13482;48.234;13.006;2022-07-29T08:15:57;29.50;61.20
25616;DHT22;13482;48.234;13.006;2022-07-29T08:18:29;29.60;61.20
25616;DHT22;13482;48.234;13.006;2022-07-29T08:20:58;29.80;60.90
25616;DHT22;13482;48.234;13.006;2022-07-29T08:23:25;30.00;60.20
25616;DHT22;13482;48.234;13.006;2022-07-29T08:26:12;30.10;60.00
25616;DHT22;13482;48.234;13.006;2022-07-29T08:28:41;30.20;60.00
25616;DHT22;13482;48.234;13.006;2022-07-29T08:31:16;30.40;59.90
25616;DHT22;13482;48.234;13.006;2022-07-29T08:33:44;30.50;59.70
25616;DHT22;13482;48.234;13.006;2022-07-29T08:36:11;30.70;59.50
25616;DHT22;13482;48.234;13.006;2022-07-29T08:38:39;30.80;58.90
25616;DHT22;13482;48.234;13.006;2022-07-29T08:41:07;30.90;58.80
25616;DHT22;13482;48.234;13.006;2022-07-29T08:43:34;31.10;58.30
25616;DHT22;13482;48.234;13.006;2022-07-29T08:46:04;31.20;58.40
25616;DHT22;13482;48.234;13.006;2022-07-29T08:48:32;31.30;58.30
25616;DHT22;13482;48.234;13.006;2022-07-29T08:51:01;31.30;57.80
25616;DHT22;13482;48.234;13.006;2022-07-29T08:53:30;31.40;57.70
25616;DHT22;13482;48.234;13.006;2022-07-29T08:55:57;31.50;57.80
25616;DHT22;13482;48.234;13.006;2022-07-29T08:58:27;31.60;57.90
25616;DHT22;13482;48.234;13.006;2022-07-29T09:01:03;31.70;57.60
25616;DHT22;13482;48.234;13.006;2022-07-29T09:03:35;31.90;57.60
25616;DHT22;13482;48.234;13.006;2022-07-29T09:06:04;32.10;57.70
25616;DHT22;13482;48.234;13.006;2022-07-29T09:08:32;32.30;57.60
25616;DHT22;13482;48.234;13.006;2022-07-29T09:11:03;32.50;57.40
25616;DHT22;13482;48.234;13.006;2022-07-29T09:13:31;32.70;57.00
25616;DHT22;13482;48.234;13.006;2022-07-29T09:15:59;32.90;56.90
25616;DHT22;13482;48.234;13.006;2022-07-29T09:18:36;33.10;56.50
25616;DHT22;13482;48.234;13.006;2022-07-29T09:21:06;33.30;56.30
25616;DHT22;13482;48.234;13.006;2022-07-29T09:24:06;33.50;55.70
25616;DHT22;13482;48.234;13.006;2022-07-29T09:26:45;33.70;54.10
25616;DHT22;13482;48.234;13.006;2022-07-29T09:29:17;33.80;54.30
25616;DHT22;13482;48.234;13.006;2022-07-29T09:31:48;33.90;54.70
25616;DHT22;13482;48.234;13.006;2022-07-29T09:34:23;34.00;54.60
25616;DHT22;13482;48.234;13.006;2022-07-29T09:36:53;34.10;54.20
25616;DHT22;13482;48.234;13.006;2022-07-29T09:39:39;34.10;54.30
25616;DHT22;13482;48.234;13.006;2022-07-29T09:42:13;34.20;51.40
25616;DHT22;13482;48.234;13.006;2022-07-29T09:44:48;34.20;53.60
25616;DHT22;13482;48.234;13.006;2022-07-29T09:47:18;34.20;53.60
25616;DHT22;13482;48.234;13.006;2022-07-29T09:49:57;34.30;53.50
25616;DHT22;13482;48.234;13.006;2022-07-29T09:52:27;34.40;52.10
25616;DHT22;13482;48.234;13.006;2022-07-29T09:55:06;34.40;52.60
25616;DHT22;13482;48.234;13.006;2022-07-29T09:57:35;34.50;50.90
25616;DHT22;13482;48.234;13.006;2022-07-29T10:00:14;34.40;51.90
25616;DHT22;13482;48.234;13.006;2022-07-29T10:02:45;34.40;51.30
25616;DHT22;13482;48.234;13.006;2022-07-29T10:05:21;34.40;51.80
25616;DHT22;13482;48.234;13.006;2022-07-29T10:07:55;34.40;50.60
25616;DHT22;13482;48.234;13.006;2022-07-29T10:10:29;34.40;50.50
25616;DHT22;13482;48.234;13.006;2022-07-29T10:12:59;34.40;50.00
25616;DHT22;13482;48.234;13.006;2022-07-29T10:15:35;34.30;50.20
25616;DHT22;13482;48.234;13.006;2022-07-29T10:18:06;34.20;50.10
25616;DHT22;13482;48.234;13.006;2022-07-29T10:20:35;34.10;50.10
25616;DHT22;13482;48.234;13.006;2022-07-29T10:23:03;34.00;50.20
25616;DHT22;13482;48.234;13.006;2022-07-29T10:25:30;33.90;50.40
25616;DHT22;13482;48.234;13.006;2022-07-29T10:27:58;33.90;50.50
25616;DHT22;13482;48.234;13.006;2022-07-29T10:30:26;33.80;50.80
25616;DHT22;13482;48.234;13.006;2022-07-29T10:36:32;33.90;50.40
25616;DHT22;13482;48.234;13.006;2022-07-29T10:42:19;33.90;50.30
25616;DHT22;13482;48.234;13.006;2022-07-29T10:45:00;34.00;50.70
25616;DHT22;13482;48.234;13.006;2022-07-29T10:47:30;34.10;51.00
25616;DHT22;13482;48.234;13.006;2022-07-29T10:50:02;34.20;50.80
25616;DHT22;13482;48.234;13.006;2022-07-29T10:55:35;34.30;48.00
25616;DHT22;13482;48.234;13.006;2022-07-29T10:58:15;34.40;48.70
25616;DHT22;13482;48.234;13.006;2022-07-29T11:00:51;34.30;49.70
25616;DHT22;13482;48.234;13.006;2022-07-29T11:03:46;34.30;50.40
25616;DHT22;13482;48.234;13.006;2022-07-29T11:06:19;34.40;50.40
25616;DHT22;13482;48.234;13.006;2022-07-29T11:09:15;34.60;50.60
25616;DHT22;13482;48.234;13.006;2022-07-29T11:11:46;34.70;49.90
25616;DHT22;13482;48.234;13.006;2022-07-29T11:15:04;34.90;49.70
25616;DHT22;13482;48.234;13.006;2022-07-29T11:17:24;35.00;49.40
25616;DHT22;13482;48.234;13.006;2022-07-29T11:19:58;35.20;49.60
25616;DHT22;13482;48.234;13.006;2022-07-29T11:23:30;35.30;49.20
25616;DHT22;13482;48.234;13.006;2022-07-29T11:47:57;36.20;47.10
25616;DHT22;13482;48.234;13.006;2022-07-29T11:50:45;36.20;46.80
25616;DHT22;13482;48.234;13.006;2022-07-29T11:53:14;36.10;47.00
25616;DHT22;13482;48.234;13.006;2022-07-29T11:55:42;36.10;46.90
25616;DHT22;13482;48.234;13.006;2022-07-29T11:58:30;36.10;46.60
25616;DHT22;13482;48.234;13.006;2022-07-29T12:00:57;36.10;46.50
25616;DHT22;13482;48.234;13.006;2022-07-29T12:03:30;36.10;46.40
25616;DHT22;13482;48.234;13.006;2022-07-29T12:06:10;36.10;46.30
25616;DHT22;13482;48.234;13.006;2022-07-29T12:08:44;36.10;46.60
25616;DHT22;13482;48.234;13.006;2022-07-29T12:11:19;36.10;46.50
25616;DHT22;13482;48.234;13.006;2022-07-29T12:13:50;36.20;46.50
25616;DHT22;13482;48.234;13.006;2022-07-29T12:16:19;36.20;46.70
25616;DHT22;13482;48.234;13.006;2022-07-29T12:19:00;36.30;46.30
25616;DHT22;13482;48.234;13.006;2022-07-29T12:21:46;36.40;45.50
25616;DHT22;13482;48.234;13.006;2022-07-29T12:24:23;36.50;44.50
25616;DHT22;13482;48.234;13.006;2022-07-29T12:26:59;36.40;45.70
25616;DHT22;13482;48.234;13.006;2022-07-29T12:29:28;36.30;45.10
25616;DHT22;13482;48.234;13.006;2022-07-29T12:32:02;36.30;45.90
25616;DHT22;13482;48.234;13.006;2022-07-29T12:34:44;36.30;45.90
25616;DHT22;13482;48.234;13.006;2022-07-29T12:37:12;36.20;45.80
25616;DHT22;13482;48.234;13.006;2022-07-29T12:39:39;36.30;46.30
25616;DHT22;13482;48.234;13.006;2022-07-29T12:42:14;36.30;46.00
25616;DHT22;13482;48.234;13.006;2022-07-29T12:44:48;36.40;45.10
25616;DHT22;13482;48.234;13.006;2022-07-29T12:47:17;36.50;45.50
25616;DHT22;13482;48.234;13.006;2022-07-29T12:49:46;36.50;45.50
25616;DHT22;13482;48.234;13.006;2022-07-29T12:52:31;36.60;45.90
25616;DHT22;13482;48.234;13.006;2022-07-29T12:55:00;36.80;45.50
25616;DHT22;13482;48.234;13.006;2022-07-29T12:57:28;36.90;45.70
25616;DHT22;13482;48.234;13.006;2022-07-29T13:00:08;36.90;45.70
25616;DHT22;13482;48.234;13.006;2022-07-29T13:02:39;37.10;44.80
25616;DHT22;13482;48.234;13.006;2022-07-29T13:05:08;37.10;44.90
25616;DHT22;13482;48.234;13.006;2022-07-29T13:07:37;37.10;44.60
25616;DHT22;13482;48.234;13.006;2022-07-29T13:10:23;37.10;44.30
25616;DHT22;13482;48.234;13.006;2022-07-29T13:13:05;36.90;44.30
25616;DHT22;13482;48.234;13.006;2022-07-29T13:15:44;36.80;43.80
25616;DHT22;13482;48.234;13.006;2022-07-29T13:18:32;36.70;43.80
25616;DHT22;13482;48.234;13.006;2022-07-29T13:21:13;36.40;44.00
25616;DHT22;13482;48.234;13.006;2022-07-29T13:23:44;36.30;44.30
25616;DHT22;13482;48.234;13.006;2022-07-29T13:26:11;36.10;44.60
25616;DHT22;13482;48.234;13.006;2022-07-29T13:28:39;36.00;44.60
25616;DHT22;13482;48.234;13.006;2022-07-29T13:31:10;35.90;44.70
25616;DHT22;13482;48.234;13.006;2022-07-29T13:33:37;35.80;44.90
25616;DHT22;13482;48.234;13.006;2022-07-29T13:36:05;35.80;45.30
25616;DHT22;13482;48.234;13.006;2022-07-29T13:38:32;35.80;45.30
25616;DHT22;13482;48.234;13.006;2022-07-29T13:41:01;35.90;45.30
25616;DHT22;13482;48.234;13.006;2022-07-29T13:43:29;35.90;45.30
25616;DHT22;13482;48.234;13.006;2022-07-29T13:45:56;36.00;45.00
25616;DHT22;13482;48.234;13.006;2022-07-29T13:48:23;36.00;45.20
25616;DHT22;13482;48.234;13.006;2022-07-29T13:50:50;36.10;45.20
25616;DHT22;13482;48.234;13.006;2022-07-29T13:53:18;36.20;44.80
25616;DHT22;13482;48.234;13.006;2022-07-29T13:55:52;36.10;44.40
25616;DHT22;13482;48.234;13.006;2022-07-29T13:58:20;36.00;44.30
25616;DHT22;13482;48.234;13.006;2022-07-29T14:00:47;35.90;43.90
25616;DHT22;13482;48.234;13.006;2022-07-29T14:03:15;35.80;43.90
25616;DHT22;13482;48.234;13.006;2022-07-29T14:05:42;35.60;43.90
25616;DHT22;13482;48.234;13.006;2022-07-29T14:08:11;35.50;43.90
25616;DHT22;13482;48.234;13.006;2022-07-29T14:10:38;35.40;44.10
25616;DHT22;13482;48.234;13.006;2022-07-29T14:13:05;35.30;43.80
25616;DHT22;13482;48.234;13.006;2022-07-29T14:15:50;35.20;44.00
25616;DHT22;13482;48.234;13.006;2022-07-29T14:18:17;35.10;44.30
25616;DHT22;13482;48.234;13.006;2022-07-29T14:20:45;35.10;44.10
25616;DHT22;13482;48.234;13.006;2022-07-29T14:23:12;35.10;44.20
25616;DHT22;13482;48.234;13.006;2022-07-29T14:25:42;35.10;44.30
25616;DHT22;13482;48.234;13.006;2022-07-29T14:28:10;35.10;44.30
25616;DHT22;13482;48.234;13.006;2022-07-29T14:30:40;35.10;44.00
25616;DHT22;13482;48.234;13.006;2022-07-29T14:33:07;35.10;44.00
25616;DHT22;13482;48.234;13.006;2022-07-29T14:35:34;35.20;43.80
25616;DHT22;13482;48.234;13.006;2022-07-29T14:38:02;35.20;43.90
25616;DHT22;13482;48.234;13.006;2022-07-29T14:40:29;35.30;43.40
25616;DHT22;13482;48.234;13.006;2022-07-29T14:42:57;35.30;43.40
25616;DHT22;13482;48.234;13.006;2022-07-29T14:45:24;35.40;43.40
25616;DHT22;13482;48.234;13.006;2022-07-29T14:47:51;35.40;42.90
25616;DHT22;13482;48.234;13.006;2022-07-29T14:50:23;35.30;43.10
25616;DHT22;13482;48.234;13.006;2022-07-29T14:53:01;35.20;43.10
25616;DHT22;13482;48.234;13.006;2022-07-29T14:55:28;35.10;43.00
25616;DHT22;13482;48.234;13.006;2022-07-29T14:57:55;35.00;43.40
25616;DHT22;13482;48.234;13.006;2022-07-29T15:00:34;35.00;43.70
25616;DHT22;13482;48.234;13.006;2022-07-29T15:03:03;35.00;43.90
25616;DHT22;13482;48.234;13.006;2022-07-29T15:05:37;35.00;43.80
25616;DHT22;13482;48.234;13.006;2022-07-29T15:08:04;35.00;43.90
25616;DHT22;13482;48.234;13.006;2022-07-29T15:10:32;35.00;43.90
25616;DHT22;13482;48.234;13.006;2022-07-29T15:12:59;35.10;44.10
25616;DHT22;13482;48.234;13.006;2022-07-29T15:15:27;35.10;44.50
25616;DHT22;13482;48.234;13.006;2022-07-29T15:17:54;35.20;44.40
25616;DHT22;13482;48.234;13.006;2022-07-29T15:20:22;35.30;44.10
25616;DHT22;13482;48.234;13.006;2022-07-29T15:22:52;35.40;44.10
25616;DHT22;13482;48.234;13.006;2022-07-29T15:25:19;35.50;44.10
25616;DHT22;13482;48.234;13.006;2022-07-29T15:27:46;35.60;43.80
25616;DHT22;13482;48.234;13.006;2022-07-29T15:30:18;35.60;43.60
25616;DHT22;13482;48.234;13.006;2022-07-29T15:33:01;35.60;43.50
25616;DHT22;13482;48.234;13.006;2022-07-29T15:35:29;35.60;43.40
25616;DHT22;13482;48.234;13.006;2022-07-29T15:37:57;35.60;43.20
25616;DHT22;13482;48.234;13.006;2022-07-29T15:40:24;35.50;43.10
25616;DHT22;13482;48.234;13.006;2022-07-29T15:42:52;35.50;43.20
25616;DHT22;13482;48.234;13.006;2022-07-29T15:45:19;35.40;43.30
25616;DHT22;13482;48.234;13.006;2022-07-29T15:47:47;35.40;43.30
25616;DHT22;13482;48.234;13.006;2022-07-29T15:50:14;35.40;43.30
25616;DHT22;13482;48.234;13.006;2022-07-29T15:52:42;35.40;43.30
25616;DHT22;13482;48.234;13.006;2022-07-29T15:55:10;35.30;43.30
25616;DHT22;13482;48.234;13.006;2022-07-29T15:57:37;35.20;43.40
25616;DHT22;13482;48.234;13.006;2022-07-29T16:00:07;35.20;43.50
25616;DHT22;13482;48.234;13.006;2022-07-29T16:02:35;35.10;43.40
25616;DHT22;13482;48.234;13.006;2022-07-29T16:05:02;35.00;43.60
25616;DHT22;13482;48.234;13.006;2022-07-29T16:07:34;35.00;43.60
25616;DHT22;13482;48.234;13.006;2022-07-29T16:10:03;34.90;43.60
25616;DHT22;13482;48.234;13.006;2022-07-29T16:12:31;34.70;43.30
25616;DHT22;13482;48.234;13.006;2022-07-29T16:14:58;34.60;43.50
25616;DHT22;13482;48.234;13.006;2022-07-29T16:17:25;34.50;43.80
25616;DHT22;13482;48.234;13.006;2022-07-29T16:19:53;34.30;43.90
25616;DHT22;13482;48.234;13.006;2022-07-29T16:22:20;34.20;44.00
25616;DHT22;13482;48.234;13.006;2022-07-29T16:24:47;34.10;44.00
25616;DHT22;13482;48.234;13.006;2022-07-29T16:27:15;33.90;44.20